Terminal Aerodrome Forecast
Issued by NWS

Home | Current Version | Previous Version | Graphics & Text | Print | Product List | Glossary On
Versions: 1 2 3 4 5 6 7 8 9 10 11 12 13 14 15 16 17
034
FTUS43 KICT 162338
TAFSLN
TAF
KSLN 162338Z 1700/1724 16006KT P6SM BKN250
     FM171000 19007KT P6SM OVC025
     FM171200 22005KT P6SM OVC015
     FM171800 33008KT P6SM SCT025 BKN040=

USA.gov is the U.S. government's official web portal to all federal, state and local government web resources and services.